Decoded Metar for CYYH (SPENCE BAY in NU, CANADA) (IATA:YYH) | Meteo·Mobile Aviation Weather
aviador You're here:

CYYH Decoded Metar

SPENCE BAY in NU, CANADA
Report Time2018-12-13 11:00:00
UTC Time2018-12-13 11:48:25
Flight Rules mvfr MVFR
Wind060° at 15 kt
W.Decomp.*RWY 15: 3.9 kt HW 14.5 kt LCW
W.Rank060° ranks 12
Current wind is above 060° avg. (10.2)
Visibility4828 m
Phenomena:Low Drifting Snow
Light Snow
Clouds:Few 022 Hf
Overcast 062 Hf
Expected CloudBase > 1,200 ft AGL from Temp-Dew spread
Ceiling6,200 ft
Temp-16°C (ISA -31)
Dew Point-19°C (78% RH)
AAT-24.9°C
QNH998 hPa
Density Alt-3,274 ft
Elevation92 ft
Report Wrong Elevation
Raw Report
CYYH 131100Z 06015KT 3SM -SN DRSN FEW022 OVC062 M16/M19 A2947 RMK
SC2SC6 SLP984=

Extra information for CYYH:More info

Metar Taf Metar & Taf Last 4 Metars F.Rules Stats Wind Profile Meteogram Temp Stats Airport Information Weather charts Add Link Nearby VenuesMetar ALERT Operation Metar Decoded Social comments